createdAt,value
2018-01-24T00:01:07.390Z,12.33
2018-01-24T00:03:35.771Z,11.23
2018-01-24T00:06:04.069Z,12.80
2018-01-24T00:08:31.608Z,11.40
2018-01-24T00:10:59.966Z,10.67
2018-01-24T00:13:27.503Z,11.10
2018-01-24T00:15:55.034Z,11.77
2018-01-24T00:18:23.415Z,11.25
2018-01-24T00:20:51.180Z,10.10
2018-01-24T00:23:19.599Z,10.52
2018-01-24T00:25:47.545Z,11.37
2018-01-24T00:28:16.415Z,10.77
2018-01-24T00:30:44.024Z,11.43
2018-01-24T00:33:11.601Z,10.60
2018-01-24T00:35:39.908Z,9.50
2018-01-24T00:38:07.451Z,9.40
2018-01-24T00:40:35.012Z,9.10
2018-01-24T00:43:02.592Z,9.60
2018-01-24T00:45:30.127Z,9.20
2018-01-24T00:47:58.767Z,7.80
2018-01-24T00:50:26.304Z,9.53
2018-01-24T00:52:53.843Z,8.60
2018-01-24T00:55:21.447Z,8.27
2018-01-24T00:57:49.407Z,7.70
2018-01-24T01:00:16.941Z,9.27
2018-01-24T01:02:44.507Z,7.65
2018-01-24T01:05:12.035Z,8.20
2018-01-24T01:07:39.554Z,7.53
2018-01-24T01:10:07.717Z,7.60
2018-01-24T01:12:35.247Z,8.00
2018-01-24T01:15:02.775Z,7.37
2018-01-24T01:17:30.342Z,7.30
2018-01-24T01:19:58.703Z,6.93
2018-01-24T01:22:26.302Z,7.30
2018-01-24T01:24:53.857Z,7.80
2018-01-24T01:27:21.428Z,7.27
2018-01-24T01:29:48.971Z,6.70
2018-01-24T01:32:17.315Z,7.45
2018-01-24T01:34:44.847Z,7.23
2018-01-24T01:37:12.372Z,5.93
2018-01-24T01:39:39.932Z,6.40
2018-01-24T01:42:07.459Z,6.72
2018-01-24T01:44:35.043Z,7.57
2018-01-24T01:47:02.643Z,6.13
2018-01-24T01:49:30.943Z,6.70
2018-01-24T01:51:58.470Z,6.28
2018-01-24T01:54:26.603Z,5.47
2018-01-24T01:56:54.697Z,5.70
2018-01-24T01:59:22.525Z,6.37
2018-01-24T02:01:50.084Z,5.73
2018-01-24T02:04:17.855Z,6.20
2018-01-24T02:06:45.439Z,6.10
2018-01-24T02:09:23.571Z,6.65
2018-01-24T02:16:37.735Z,6.60
2018-01-24T02:19:05.267Z,5.80
2018-01-24T02:21:32.795Z,6.22
2018-01-24T02:24:00.407Z,6.07
2018-01-24T02:26:27.935Z,5.73
2018-01-24T02:28:55.472Z,6.32
2018-01-24T02:31:23.074Z,5.93
2018-01-24T02:33:51.371Z,5.50
2018-01-24T02:36:18.963Z,5.23
2018-01-24T02:38:58.617Z,4.40
2018-01-24T02:41:26.247Z,5.67
2018-01-24T02:43:53.788Z,5.00
2018-01-24T02:46:21.412Z,4.43
2018-01-24T02:48:48.942Z,5.10
2018-01-24T02:51:16.555Z,5.10
2018-01-24T02:53:44.944Z,5.77
2018-01-24T02:56:14.159Z,5.97
2018-01-24T02:58:41.768Z,5.57
2018-01-24T03:01:10.347Z,4.47
2018-01-24T03:03:37.883Z,5.43
2018-01-24T03:06:05.414Z,5.40
2018-01-24T03:08:32.971Z,4.93
2018-01-24T03:11:01.259Z,6.15
2018-01-24T03:13:28.867Z,5.93
2018-01-24T03:15:56.420Z,5.07
2018-01-24T03:18:23.988Z,4.43
2018-01-24T03:20:51.574Z,4.78
2018-01-24T03:23:19.611Z,4.97
2018-01-24T03:25:47.140Z,4.70
2018-01-24T03:28:15.542Z,5.18
2018-01-24T03:30:43.173Z,4.57
2018-01-24T03:33:10.708Z,4.60
2018-01-24T03:35:39.002Z,4.20
2018-01-24T03:38:06.563Z,4.63
2018-01-24T03:40:34.091Z,4.40
2018-01-24T03:43:01.622Z,4.73
2018-01-24T03:45:29.955Z,5.03
2018-01-24T03:47:57.559Z,4.35
2018-01-24T03:50:25.132Z,5.13
2018-01-24T03:52:52.696Z,4.40
2018-01-24T03:55:20.224Z,4.05
2018-01-24T03:57:47.747Z,4.23
2018-01-24T04:00:15.672Z,4.20
2018-01-24T04:02:43.603Z,4.57
2018-01-24T04:05:11.189Z,4.40
2018-01-24T04:07:38.951Z,4.60
2018-01-24T04:10:06.492Z,4.45
2018-01-24T04:12:34.023Z,4.53
2018-01-24T04:15:02.363Z,5.30
2018-01-24T04:17:29.889Z,4.97
2018-01-24T04:19:57.424Z,4.40
2018-01-24T04:22:25.022Z,4.60
2018-01-24T04:24:52.560Z,4.83
2018-01-24T04:27:20.087Z,4.53
2018-01-24T04:29:47.947Z,4.60
2018-01-24T04:32:16.418Z,5.00
2018-01-24T04:34:44.315Z,5.47
2018-01-24T04:37:11.939Z,5.17
2018-01-24T04:39:39.472Z,5.35
2018-01-24T04:42:07.055Z,5.00
2018-01-24T04:44:34.668Z,5.03
2018-01-24T04:47:02.314Z,4.53
2018-01-24T04:49:29.910Z,3.87
2018-01-24T04:51:57.907Z,4.43
2018-01-24T04:54:25.443Z,4.00
2018-01-24T04:56:53.019Z,4.10
2018-01-24T04:59:20.624Z,5.10
2018-01-24T05:01:48.154Z,4.47
2018-01-24T05:04:16.687Z,5.87
2018-01-24T05:06:44.260Z,7.20
2018-01-24T05:09:11.783Z,5.10
2018-01-24T05:11:39.315Z,4.97
2018-01-24T05:14:07.171Z,4.90
2018-01-24T05:16:34.706Z,27.00
2018-01-24T05:19:02.253Z,8.73
2018-01-24T05:21:30.770Z,4.40
2018-01-24T05:23:58.295Z,4.87
2018-01-24T05:26:26.597Z,5.10
2018-01-24T05:28:54.223Z,4.57
2018-01-24T05:31:21.829Z,4.70
2018-01-24T05:33:49.358Z,3.57
2018-01-24T05:36:17.145Z,4.27
2018-01-24T05:38:44.670Z,5.90
2018-01-24T05:41:12.353Z,4.27
2018-01-24T05:43:40.142Z,4.90
2018-01-24T05:46:07.748Z,4.03
2018-01-24T05:48:35.380Z,3.67
2018-01-24T05:51:02.944Z,4.43
2018-01-24T05:53:30.752Z,4.57
2018-01-24T05:55:58.295Z,9.07
2018-01-24T05:58:26.338Z,4.50
2018-01-24T06:00:53.882Z,3.97
2018-01-24T06:03:21.427Z,3.80
2018-01-24T06:05:49.600Z,4.57
2018-01-24T06:08:17.123Z,3.80
2018-01-24T06:10:45.424Z,4.97
2018-01-24T06:13:14.584Z,4.15
2018-01-24T06:15:42.122Z,4.57
2018-01-24T06:18:09.646Z,4.80
2018-01-24T06:20:37.438Z,4.23
2018-01-24T06:23:04.967Z,3.97
2018-01-24T06:25:32.490Z,5.47
2018-01-24T06:28:00.051Z,4.63
2018-01-24T06:30:27.581Z,2.97
2018-01-24T06:32:55.107Z,3.67
2018-01-24T06:35:22.670Z,4.60
2018-01-24T06:37:50.189Z,4.43
2018-01-24T06:40:17.739Z,3.67
2018-01-24T06:42:45.679Z,3.67
2018-01-24T06:45:24.351Z,4.03
2018-01-24T06:50:32.599Z,3.77
2018-01-24T06:53:00.139Z,4.40
2018-01-24T06:55:27.675Z,3.78
2018-01-24T06:57:55.727Z,2.90
2018-01-24T07:00:23.257Z,3.30
2018-01-24T07:02:50.783Z,3.03
2018-01-24T07:05:19.432Z,3.70
2018-01-24T07:07:47.348Z,3.63
2018-01-24T07:10:16.495Z,3.35
2018-01-24T07:12:55.782Z,3.53
2018-01-24T07:15:24.079Z,3.90
2018-01-24T07:17:51.624Z,4.80
2018-01-24T07:20:19.683Z,3.80
2018-01-24T07:22:47.967Z,3.13
2018-01-24T07:25:16.490Z,3.65
2018-01-24T07:27:44.046Z,6.23
2018-01-24T07:30:11.575Z,7.33
2018-01-24T07:32:39.118Z,6.77
2018-01-24T07:35:06.675Z,6.00
2018-01-24T07:37:34.974Z,4.93
2018-01-24T07:40:02.499Z,4.10
2018-01-24T07:42:30.659Z,5.10
2018-01-24T07:44:58.187Z,4.13
2018-01-24T07:47:25.717Z,4.77
2018-01-24T07:49:53.283Z,4.20
2018-01-24T07:52:20.810Z,3.70
2018-01-24T07:54:48.335Z,4.20
2018-01-24T07:57:16.451Z,3.10
2018-01-24T07:59:43.983Z,4.03
2018-01-24T08:02:11.511Z,4.33
2018-01-24T08:04:39.379Z,4.20
2018-01-24T08:07:06.908Z,3.97
2018-01-24T08:09:36.007Z,4.77
2018-01-24T08:12:04.547Z,4.95
2018-01-24T08:14:32.135Z,3.73
2018-01-24T08:17:00.459Z,3.80
2018-01-24T08:19:28.019Z,3.58
2018-01-24T08:21:55.543Z,4.10
2018-01-24T08:24:23.843Z,4.15
2018-01-24T08:26:51.974Z,4.30
2018-01-24T08:29:19.507Z,3.55
2018-01-24T08:31:47.056Z,3.80
2018-01-24T08:34:15.499Z,4.10
2018-01-24T08:36:44.159Z,4.83
2018-01-24T08:39:11.691Z,4.50
2018-01-24T08:41:39.261Z,4.60
2018-01-24T08:44:06.815Z,4.60
2018-01-24T08:46:34.458Z,4.30
2018-01-24T08:49:02.648Z,4.00
2018-01-24T08:51:30.190Z,3.27
2018-01-24T08:53:57.719Z,3.53
2018-01-24T08:56:26.083Z,3.87
2018-01-24T08:58:53.624Z,3.70
2018-01-24T09:01:38.699Z,3.80
2018-01-24T09:04:23.640Z,4.10
2018-01-24T09:07:09.946Z,3.73
2018-01-24T09:09:57.085Z,3.75
2018-01-24T09:12:42.435Z,3.20
2018-01-24T09:15:27.563Z,2.80
2018-01-24T09:18:13.437Z,3.27
2018-01-24T09:20:59.301Z,3.17
2018-01-24T09:26:30.973Z,3.60
2018-01-24T09:28:58.617Z,3.40
2018-01-24T09:31:26.155Z,3.05
2018-01-24T09:33:53.771Z,3.23
2018-01-24T09:36:21.435Z,3.37
2018-01-24T09:38:49.212Z,3.00
2018-01-24T09:41:16.743Z,3.47
2018-01-24T09:43:44.649Z,2.87
2018-01-24T09:46:12.229Z,2.77
2018-01-24T09:48:39.848Z,2.90
2018-01-24T09:51:07.413Z,2.83
2018-01-24T09:53:35.875Z,3.90
2018-01-24T09:56:03.463Z,2.67
2018-01-24T09:58:31.050Z,2.90
2018-01-24T10:00:58.592Z,2.90
2018-01-24T10:03:26.908Z,2.53
2018-01-24T10:05:55.541Z,2.67
2018-01-24T10:08:23.099Z,2.60
2018-01-24T10:10:51.495Z,2.80
2018-01-24T10:13:20.139Z,2.57
2018-01-24T10:15:47.666Z,4.27
2018-01-24T10:18:16.242Z,3.17
2018-01-24T10:20:43.794Z,2.20
2018-01-24T10:23:12.098Z,2.20
2018-01-24T10:25:39.850Z,2.30
2018-01-24T10:28:07.736Z,2.43
2018-01-24T10:30:35.324Z,2.60
2018-01-24T10:33:02.892Z,2.37
2018-01-24T10:35:30.459Z,2.78
2018-01-24T10:37:57.999Z,3.40
2018-01-24T10:40:25.528Z,3.27
2018-01-24T10:42:53.101Z,3.37
2018-01-24T10:45:20.631Z,2.70
2018-01-24T10:47:48.208Z,5.07
2018-01-24T10:50:16.779Z,3.80
2018-01-24T10:52:44.311Z,3.63
2018-01-24T10:55:11.839Z,3.20
2018-01-24T10:57:39.403Z,3.30
2018-01-24T11:00:06.955Z,3.97
2018-01-24T11:02:34.492Z,2.80
2018-01-24T11:05:02.078Z,2.83
2018-01-24T11:07:29.614Z,2.87
2018-01-24T11:09:57.153Z,2.60
2018-01-24T11:12:26.169Z,2.80
2018-01-24T11:14:53.703Z,3.00
2018-01-24T11:17:21.243Z,2.57
2018-01-24T11:19:49.272Z,2.67
2018-01-24T11:22:16.804Z,2.20
2018-01-24T11:24:44.346Z,3.17
2018-01-24T11:27:11.924Z,2.60
2018-01-24T11:29:39.468Z,2.10
2018-01-24T11:32:07.003Z,2.77
2018-01-24T11:34:34.884Z,2.73
2018-01-24T11:37:03.191Z,2.50
2018-01-24T11:39:30.753Z,2.53
2018-01-24T11:41:58.327Z,2.43
2018-01-24T11:44:25.854Z,2.80
2018-01-24T11:46:53.380Z,2.80
2018-01-24T11:49:20.948Z,3.00
2018-01-24T11:51:48.492Z,3.00
2018-01-24T11:54:16.451Z,2.83
2018-01-24T11:56:44.414Z,2.50
2018-01-24T11:59:11.947Z,2.80
2018-01-24T12:01:39.479Z,2.10
2018-01-24T12:04:07.812Z,2.43
2018-01-24T12:06:35.479Z,2.50
2018-01-24T12:09:03.011Z,2.70
2018-01-24T12:11:30.574Z,2.90
2018-01-24T12:13:58.719Z,3.00
2018-01-24T12:16:27.021Z,2.43
2018-01-24T12:18:54.911Z,2.20
2018-01-24T12:21:22.450Z,2.55
2018-01-24T12:23:50.387Z,2.70
2018-01-24T12:26:18.080Z,2.47
2018-01-24T12:28:45.624Z,2.50
2018-01-24T12:31:23.616Z,2.55
2018-01-24T12:38:30.923Z,2.70
2018-01-24T12:40:59.268Z,2.45
2018-01-24T12:43:26.801Z,3.00
2018-01-24T12:45:54.386Z,3.23
2018-01-24T12:48:21.939Z,2.90
2018-01-24T12:50:49.488Z,2.90
2018-01-24T12:53:17.060Z,3.47
2018-01-24T12:55:44.719Z,4.20
2018-01-24T12:58:12.313Z,3.90
2018-01-24T13:00:40.507Z,5.03
2018-01-24T13:06:19.346Z,4.63
2018-01-24T13:08:48.652Z,3.80
2018-01-24T13:11:17.459Z,4.60
2018-01-24T13:13:45.008Z,3.60
2018-01-24T13:16:15.596Z,3.50
2018-01-24T13:18:47.755Z,3.83
2018-01-24T13:21:21.101Z,4.80
2018-01-24T13:23:48.717Z,3.53
2018-01-24T13:26:17.910Z,3.22
2018-01-24T13:28:46.477Z,3.20
2018-01-24T13:31:27.776Z,3.37
2018-01-24T13:36:42.612Z,3.23
2018-01-24T13:39:10.923Z,3.90
2018-01-24T13:41:38.455Z,4.70
2018-01-24T13:44:06.019Z,5.80
2018-01-24T13:46:33.552Z,4.60
2018-01-24T13:49:01.980Z,5.60
2018-01-24T13:51:29.547Z,4.90
2018-01-24T13:53:57.087Z,4.33
2018-01-24T13:56:24.623Z,4.17
2018-01-24T13:58:52.847Z,3.30
2018-01-24T14:01:20.450Z,3.40
2018-01-24T14:03:48.022Z,2.80
2018-01-24T14:06:16.496Z,2.90
2018-01-24T14:08:44.848Z,3.40
2018-01-24T14:11:12.384Z,2.83
2018-01-24T14:13:39.959Z,3.07
2018-01-24T14:16:07.503Z,3.03
2018-01-24T14:18:35.587Z,3.60
2018-01-24T14:21:03.587Z,3.30
2018-01-24T14:23:31.121Z,3.20
2018-01-24T14:25:58.651Z,3.07
2018-01-24T14:28:26.221Z,3.70
2018-01-24T14:30:53.759Z,3.50
2018-01-24T14:33:21.290Z,3.90
2018-01-24T14:35:48.888Z,3.40
2018-01-24T14:38:16.841Z,4.50
2018-01-24T14:40:44.418Z,5.37
2018-01-24T14:43:12.735Z,4.80
2018-01-24T14:45:40.271Z,5.10
2018-01-24T14:48:07.800Z,4.80
2018-01-24T14:50:35.424Z,6.40
2018-01-24T14:53:02.955Z,5.10
2018-01-24T14:55:30.561Z,5.20
2018-01-24T14:57:58.895Z,6.10
2018-01-24T15:00:26.693Z,4.50
2018-01-24T15:02:54.227Z,4.67
2018-01-24T15:05:22.091Z,4.07
2018-01-24T15:07:49.626Z,4.03
2018-01-24T15:10:17.151Z,3.83
2018-01-24T15:12:44.731Z,3.87
2018-01-24T15:15:12.267Z,4.83
2018-01-24T15:17:40.643Z,5.70
2018-01-24T15:20:10.474Z,6.10
2018-01-24T15:22:40.242Z,5.33
2018-01-24T15:25:07.954Z,4.73
2018-01-24T15:27:35.608Z,4.33
2018-01-24T15:30:03.972Z,5.10
2018-01-24T15:32:32.388Z,4.97
2018-01-24T15:35:00.066Z,6.40
2018-01-24T15:37:28.101Z,6.93
2018-01-24T15:39:55.632Z,6.03
2018-01-24T15:42:23.333Z,6.03
2018-01-24T15:44:50.908Z,5.23
2018-01-24T15:47:18.447Z,5.03
2018-01-24T15:49:46.031Z,5.30
2018-01-24T15:52:24.248Z,5.17
2018-01-24T15:58:03.783Z,5.80
2018-01-24T16:00:31.311Z,5.60
2018-01-24T16:02:58.844Z,5.40
2018-01-24T16:05:26.445Z,4.40
2018-01-24T16:07:53.990Z,5.20
2018-01-24T16:10:21.523Z,5.33
2018-01-24T16:12:49.218Z,6.20
2018-01-24T16:15:16.864Z,6.00
2018-01-24T16:17:45.120Z,6.40
2018-01-24T16:20:14.713Z,6.53
2018-01-24T16:22:42.250Z,5.60
2018-01-24T16:25:09.846Z,5.50
2018-01-24T16:27:37.519Z,5.45
2018-01-24T16:30:05.136Z,5.17
2018-01-24T16:32:32.925Z,6.47
2018-01-24T16:35:00.580Z,5.80
2018-01-24T16:37:28.115Z,6.80
2018-01-24T16:39:55.728Z,6.70
2018-01-24T16:42:23.320Z,6.00
2018-01-24T16:44:51.182Z,23.93
2018-01-24T16:47:18.707Z,20.30
2018-01-24T16:49:46.579Z,13.67
2018-01-24T16:52:15.511Z,14.55
2018-01-24T16:54:43.072Z,15.90
2018-01-24T16:57:10.673Z,14.60
2018-01-24T16:59:38.219Z,9.00
2018-01-24T17:02:05.749Z,6.37
2018-01-24T17:04:34.071Z,8.63
2018-01-24T17:07:01.602Z,9.50
2018-01-24T17:09:30.842Z,11.20
2018-01-24T17:12:04.304Z,10.37
2018-01-24T17:14:31.863Z,10.30
2018-01-24T17:16:59.399Z,10.30
2018-01-24T17:19:27.726Z,11.10
2018-01-24T17:21:55.815Z,10.40
2018-01-24T17:24:23.371Z,8.80
2018-01-24T17:26:51.035Z,10.80
2018-01-24T17:29:18.566Z,9.85
2018-01-24T17:31:46.098Z,9.90
2018-01-24T17:34:28.423Z,8.93
2018-01-24T17:39:32.049Z,14.67
2018-01-24T17:41:59.730Z,15.70
2018-01-24T17:44:28.044Z,16.12
2018-01-24T17:46:55.698Z,15.57
2018-01-24T17:49:23.304Z,13.23
2018-01-24T17:51:50.854Z,12.10
2018-01-24T17:54:19.754Z,14.37
2018-01-24T17:56:47.282Z,13.10
2018-01-24T17:59:16.502Z,12.37
2018-01-24T18:01:44.072Z,10.80
2018-01-24T18:04:11.703Z,12.70
2018-01-24T18:06:39.477Z,12.50
2018-01-24T18:09:07.823Z,9.57
2018-01-24T18:11:37.506Z,10.93
2018-01-24T18:14:05.147Z,11.27
2018-01-24T18:19:28.868Z,6.83
2018-01-24T18:21:56.994Z,6.32
2018-01-24T18:24:26.635Z,7.00
2018-01-24T18:26:54.307Z,6.90
2018-01-24T18:29:21.919Z,10.63
2018-01-24T18:31:49.512Z,10.05
2018-01-24T18:34:17.146Z,8.23
2018-01-24T18:36:44.828Z,8.70
2018-01-24T18:39:12.380Z,9.10
2018-01-24T18:41:41.085Z,7.60
2018-01-24T18:44:09.559Z,7.57
2018-01-24T18:46:37.952Z,6.77
2018-01-24T18:49:05.571Z,5.55
2018-01-24T18:51:33.155Z,7.10
2018-01-24T18:54:00.789Z,7.30
2018-01-24T18:56:28.914Z,7.65
2018-01-24T18:58:56.746Z,7.28
2018-01-24T19:01:26.343Z,8.13
2018-01-24T19:03:54.188Z,8.00
2018-01-24T19:06:21.985Z,7.85
2018-01-24T19:08:49.548Z,9.07
2018-01-24T19:11:18.685Z,7.20
2018-01-24T19:13:46.300Z,8.37
2018-01-24T19:16:19.628Z,7.93
2018-01-24T19:19:59.391Z,7.27
2018-01-24T19:22:28.557Z,8.27
2018-01-24T19:24:57.053Z,7.63
2018-01-24T19:27:24.754Z,7.80
2018-01-24T19:29:52.382Z,7.30
2018-01-24T19:32:20.044Z,7.65
2018-01-24T19:34:47.616Z,8.97
2018-01-24T19:37:15.600Z,9.65
2018-01-24T19:39:43.153Z,8.17
2018-01-24T19:42:11.694Z,9.33
2018-01-24T19:44:40.004Z,7.30
2018-01-24T19:47:07.592Z,7.00
2018-01-24T19:49:36.719Z,7.50
2018-01-24T19:52:06.243Z,7.10
2018-01-24T19:54:40.643Z,8.50
2018-01-24T19:57:08.712Z,7.30
2018-01-24T19:59:36.319Z,7.30
2018-01-24T20:02:03.987Z,6.77
2018-01-24T20:04:31.854Z,7.60
2018-01-24T20:06:59.440Z,7.57
2018-01-24T20:09:27.069Z,6.80
2018-01-24T20:11:55.745Z,5.80
2018-01-24T20:14:23.343Z,7.33
2018-01-24T20:16:50.933Z,7.30
2018-01-24T20:19:18.588Z,7.10
2018-01-24T20:21:46.119Z,8.13
2018-01-24T20:24:15.638Z,6.22
2018-01-24T20:26:43.690Z,7.20
2018-01-24T20:29:11.269Z,7.27
2018-01-24T20:31:38.783Z,7.00
2018-01-24T20:34:07.111Z,6.80
2018-01-24T20:36:34.644Z,8.03
2018-01-24T20:39:02.278Z,7.70
2018-01-24T20:41:29.885Z,8.07
2018-01-24T20:43:57.451Z,6.80
2018-01-24T20:46:25.181Z,7.93
2018-01-24T20:48:52.828Z,7.00
2018-01-24T20:51:20.364Z,7.10
2018-01-24T20:53:47.910Z,7.27
2018-01-24T20:56:16.460Z,7.28
2018-01-24T20:58:44.117Z,8.60
2018-01-24T21:01:11.654Z,7.70
2018-01-24T21:03:39.317Z,8.37
2018-01-24T21:06:06.912Z,7.20
2018-01-24T21:08:34.493Z,10.05
2018-01-24T21:11:06.621Z,9.20
2018-01-24T21:13:34.210Z,13.23
2018-01-24T21:16:01.794Z,13.67
2018-01-24T21:18:29.412Z,9.80
2018-01-24T21:20:57.029Z,9.73
2018-01-24T21:23:24.618Z,8.73
2018-01-24T21:25:52.542Z,9.10
2018-01-24T21:28:31.928Z,8.52
2018-01-24T21:31:11.306Z,8.45
2018-01-24T21:33:49.553Z,13.93
2018-01-24T21:36:29.678Z,10.47
2018-01-24T21:38:57.271Z,9.97
2018-01-24T21:41:25.575Z,10.20
2018-01-24T21:43:53.196Z,10.93
2018-01-24T21:46:20.733Z,10.90
2018-01-24T21:48:48.322Z,10.07
2018-01-24T21:51:16.668Z,9.90
2018-01-24T21:53:44.255Z,9.07
2018-01-24T21:56:11.870Z,10.57
2018-01-24T21:58:40.089Z,11.02
2018-01-24T22:01:07.635Z,10.52
2018-01-24T22:03:35.217Z,11.13
2018-01-24T22:06:04.285Z,10.90
2018-01-24T22:08:31.868Z,11.87
2018-01-24T22:10:59.862Z,10.87
2018-01-24T22:13:27.469Z,11.43
2018-01-24T22:15:55.013Z,11.03
2018-01-24T22:18:22.601Z,10.87
2018-01-24T22:20:50.211Z,10.60
2018-01-24T22:23:19.327Z,11.57
2018-01-24T22:25:46.867Z,11.03
2018-01-24T22:28:15.984Z,11.35
2018-01-24T22:30:43.542Z,10.63
2018-01-24T22:33:11.098Z,10.20
2018-01-24T22:35:38.992Z,11.30
2018-01-24T22:38:06.552Z,10.75
2018-01-24T22:40:34.170Z,11.07
2018-01-24T22:43:01.773Z,10.57
2018-01-24T22:45:29.330Z,16.00
2018-01-24T22:47:56.931Z,14.47
2018-01-24T22:50:25.312Z,14.65
2018-01-24T22:52:53.703Z,12.00
2018-01-24T22:55:22.015Z,10.67
2018-01-24T22:57:50.915Z,9.87
2018-01-24T23:00:19.250Z,9.50
2018-01-24T23:02:46.807Z,9.10
2018-01-24T23:05:24.588Z,10.05
2018-01-24T23:17:17.479Z,10.60
2018-01-24T23:19:45.187Z,9.90
2018-01-24T23:22:14.406Z,10.77
2018-01-24T23:24:41.979Z,11.17
2018-01-24T23:27:09.520Z,9.95
2018-01-24T23:29:37.795Z,11.63
2018-01-24T23:32:05.426Z,11.88
2018-01-24T23:34:33.012Z,10.20
2018-01-24T23:37:00.623Z,10.50
2018-01-24T23:39:28.492Z,10.10
2018-01-24T23:41:56.106Z,10.00
2018-01-24T23:44:23.710Z,10.10
2018-01-24T23:46:51.270Z,9.73
2018-01-24T23:49:18.807Z,9.60
2018-01-24T23:51:46.338Z,9.10
2018-01-24T23:54:15.495Z,8.88
2018-01-24T23:56:43.038Z,9.27
2018-01-24T23:59:10.572Z,8.53
